createdAt,value
2022-08-16T00:04:59.744Z,100055.59
2022-08-16T00:10:02.199Z,100061.63
2022-08-16T00:15:11.594Z,100066.91
2022-08-16T00:20:14.362Z,100068.94
2022-08-16T00:25:18.672Z,100075.34
2022-08-16T00:30:28.791Z,100083.13
2022-08-16T00:35:34.815Z,100073.56
2022-08-16T00:40:43.567Z,100084.25
2022-08-16T00:46:33.262Z,100079.31
2022-08-16T00:51:29.550Z,100075.59
2022-08-16T00:56:58.075Z,100069.28
2022-08-16T01:01:56.096Z,100080.59
2022-08-16T01:07:02.303Z,100085.97
2022-08-16T01:12:08.604Z,100083.59
2022-08-16T01:17:14.976Z,100083.88
2022-08-16T01:22:47.536Z,100080.69
2022-08-16T01:27:57.467Z,100077.78
2022-08-16T01:33:14.737Z,100072.97
2022-08-16T01:38:30.826Z,100075.31
2022-08-16T01:43:35.407Z,100073.16
2022-08-16T01:48:37.659Z,100075.25
2022-08-16T01:53:41.962Z,100083.16
2022-08-16T01:59:03.992Z,100077.59
2022-08-16T02:04:10.927Z,100079.00
2022-08-16T02:09:14.565Z,100076.84
2022-08-16T02:14:21.592Z,100085.03
2022-08-16T02:19:59.114Z,100080.78
2022-08-16T02:24:50.189Z,100068.56
2022-08-16T02:30:05.049Z,100068.56
2022-08-16T02:35:09.218Z,100073.00
2022-08-16T02:40:16.367Z,100060.97
2022-08-16T02:45:20.876Z,100063.81
2022-08-16T02:50:53.976Z,100066.03
2022-08-16T02:55:50.535Z,100069.56
2022-08-16T03:00:55.953Z,100070.91
2022-08-16T03:06:00.184Z,100065.72
2022-08-16T03:11:02.012Z,100066.03
2022-08-16T03:16:04.819Z,100075.63
2022-08-16T03:21:06.520Z,100071.91
2022-08-16T03:26:12.838Z,100072.72
2022-08-16T03:31:15.551Z,100075.03
2022-08-16T03:36:31.013Z,100075.03
2022-08-16T03:41:50.388Z,100076.19
2022-08-16T03:46:54.440Z,100086.50
2022-08-16T03:52:06.798Z,100083.91
2022-08-16T03:57:11.314Z,100083.72
2022-08-16T04:02:22.567Z,100079.16
2022-08-16T04:07:34.661Z,100082.69
2022-08-16T04:12:53.904Z,100098.50
2022-08-16T04:17:58.981Z,100089.09
2022-08-16T04:23:01.392Z,100089.59
2022-08-16T04:28:51.899Z,100105.97
2022-08-16T04:33:27.683Z,100109.72
2022-08-16T04:38:32.971Z,100105.81
2022-08-16T04:43:34.995Z,100109.47
2022-08-16T04:48:37.710Z,100112.47
2022-08-16T04:53:45.005Z,100115.47
2022-08-16T04:58:47.368Z,100124.00
2022-08-16T05:04:00.569Z,100132.06
2022-08-16T05:09:05.233Z,100130.94
2022-08-16T05:14:08.097Z,100142.31
2022-08-16T05:19:16.349Z,100141.00
2022-08-16T05:24:38.161Z,100132.94
2022-08-16T05:30:00.809Z,100137.38
2022-08-16T05:35:10.995Z,100155.84
2022-08-16T05:40:16.461Z,100155.38
2022-08-16T05:45:22.176Z,100153.59
2022-08-16T05:50:33.810Z,100164.50
2022-08-16T05:55:40.874Z,100166.38
2022-08-16T06:00:43.354Z,100161.00
2022-08-16T06:05:45.076Z,100161.13
2022-08-16T06:11:09.725Z,100157.16
2022-08-16T06:16:17.808Z,100157.19
2022-08-16T06:21:23.721Z,100164.84
2022-08-16T06:26:37.060Z,100167.22
2022-08-16T06:31:46.836Z,100172.13
2022-08-16T06:36:51.738Z,100167.69
2022-08-16T06:42:02.230Z,100181.91
2022-08-16T06:47:22.815Z,100183.06
2022-08-16T06:52:58.539Z,100191.78
2022-08-16T06:57:47.125Z,100182.88
2022-08-16T07:02:51.718Z,100200.09
2022-08-16T07:07:54.332Z,100206.16
2022-08-16T07:13:04.345Z,100211.31
2022-08-16T07:18:13.249Z,100210.72
2022-08-16T07:23:21.147Z,100222.59
2022-08-16T07:28:39.697Z,100219.56
2022-08-16T07:33:52.629Z,100221.94
2022-08-16T07:39:00.060Z,100227.56
2022-08-16T07:44:16.339Z,100232.28
2022-08-16T07:49:19.573Z,100227.97
2022-08-16T07:54:32.227Z,100223.25
2022-08-16T07:59:46.064Z,100219.28
2022-08-16T08:04:50.218Z,100216.44
2022-08-16T08:09:52.447Z,100225.16
2022-08-16T08:14:54.930Z,100226.59
2022-08-16T08:19:56.620Z,100226.50
2022-08-16T08:24:59.767Z,100226.28
2022-08-16T08:30:49.610Z,100241.38
2022-08-16T08:35:29.842Z,100249.44
2022-08-16T08:40:33.326Z,100251.53
2022-08-16T08:45:52.876Z,100258.41
2022-08-16T08:50:55.781Z,100252.41
2022-08-16T08:56:00.354Z,100258.13
2022-08-16T09:01:04.320Z,100265.31
2022-08-16T09:06:07.791Z,100261.97
2022-08-16T09:11:15.842Z,100261.59
2022-08-16T09:17:01.695Z,100266.91
2022-08-16T09:21:43.697Z,100259.22
2022-08-16T09:26:47.080Z,100261.38
2022-08-16T09:31:57.070Z,100261.53
2022-08-16T09:37:00.344Z,100270.34
2022-08-16T09:42:02.121Z,100268.13
2022-08-16T09:47:03.967Z,100272.91
2022-08-16T09:52:12.132Z,100268.94
2022-08-16T09:57:13.687Z,100275.19
2022-08-16T10:02:26.509Z,100265.66
2022-08-16T10:07:44.778Z,100266.31
2022-08-16T10:12:56.813Z,100254.75
2022-08-16T10:18:01.683Z,100259.34
2022-08-16T10:23:06.780Z,100246.00
2022-08-16T10:28:27.942Z,100247.75
2022-08-16T10:33:33.789Z,100244.09
2022-08-16T10:38:38.374Z,100258.41
2022-08-16T10:43:42.040Z,100266.63
2022-08-16T10:48:47.046Z,100266.09
2022-08-16T10:53:48.783Z,100262.84
2022-08-16T10:58:52.890Z,100265.41
2022-08-16T11:03:57.446Z,100260.03
2022-08-16T11:14:21.012Z,100250.91
2022-08-16T11:19:22.937Z,100255.69
2022-08-16T11:24:39.896Z,100253.59
2022-08-16T11:29:43.646Z,100259.53
2022-08-16T11:35:11.002Z,100254.78
2022-08-16T11:40:08.098Z,100252.50
2022-08-16T11:45:11.075Z,100247.88
2022-08-16T11:50:13.505Z,100245.06
2022-08-16T11:55:15.138Z,100244.78
2022-08-16T12:00:33.561Z,100242.41
2022-08-16T12:05:40.472Z,100249.91
2022-08-16T12:10:43.769Z,100250.97
2022-08-16T12:15:47.502Z,100251.66
2022-08-16T12:20:49.629Z,100241.34
2022-08-16T12:25:51.334Z,100244.91
2022-08-16T12:30:53.838Z,100239.53
2022-08-16T12:35:55.401Z,100238.19
2022-08-16T12:40:57.389Z,100237.41
2022-08-16T12:45:59.170Z,100230.03
2022-08-16T12:51:10.906Z,100238.47
2022-08-16T12:56:25.386Z,100221.09
2022-08-16T13:01:33.482Z,100226.03
2022-08-16T13:06:36.006Z,100222.16
2022-08-16T13:11:41.429Z,100215.97
2022-08-16T13:16:51.030Z,100210.31
2022-08-16T13:21:52.609Z,100215.06
2022-08-16T13:26:54.254Z,100213.59
2022-08-16T13:31:56.016Z,100217.00
2022-08-16T13:36:57.811Z,100209.78
2022-08-16T13:42:00.672Z,100205.75
2022-08-16T13:47:02.523Z,100203.25
2022-08-16T13:52:04.745Z,100203.41
2022-08-16T13:57:11.663Z,100201.50
2022-08-16T14:02:13.703Z,100201.00
2022-08-16T14:07:19.952Z,100198.56
2022-08-16T14:12:31.204Z,100200.13
2022-08-16T14:18:01.819Z,100207.53
2022-08-16T14:22:56.197Z,100214.38
2022-08-16T14:27:57.747Z,100198.47
2022-08-16T14:32:59.300Z,100203.94
2022-08-16T14:38:02.162Z,100205.53
2022-08-16T14:43:07.080Z,100199.44
2022-08-16T14:48:09.185Z,100193.59
2022-08-16T14:53:10.796Z,100192.44
2022-08-16T14:58:18.724Z,100187.13
2022-08-16T15:03:21.511Z,100186.00
2022-08-16T15:08:36.285Z,100178.50
2022-08-16T15:13:39.125Z,100189.94
2022-08-16T15:18:40.693Z,100197.69
2022-08-16T15:23:42.842Z,100188.63
2022-08-16T15:28:46.007Z,100186.56
2022-08-16T15:33:56.624Z,100187.84
2022-08-16T15:39:06.859Z,100189.34
2022-08-16T15:44:26.282Z,100189.28
2022-08-16T15:49:37.142Z,100188.28
2022-08-16T15:54:52.594Z,100189.84
2022-08-16T16:00:04.058Z,100192.00
2022-08-16T16:05:13.868Z,100188.28
2022-08-16T16:10:15.444Z,100192.75
2022-08-16T16:15:20.290Z,100191.88
2022-08-16T16:20:27.924Z,100185.19
2022-08-16T16:25:32.218Z,100190.47
2022-08-16T16:30:44.579Z,100190.88
2022-08-16T16:35:47.388Z,100177.22
2022-08-16T16:40:58.618Z,100184.56
2022-08-16T16:46:03.268Z,100181.34
2022-08-16T16:51:28.140Z,100186.84
2022-08-16T16:56:36.918Z,100187.91
2022-08-16T17:01:57.512Z,100176.75
2022-08-16T17:07:03.515Z,100178.03
2022-08-16T17:12:05.799Z,100181.03
2022-08-16T17:17:09.065Z,100177.81
2022-08-16T17:22:14.526Z,100180.97
2022-08-16T17:27:17.895Z,100175.06
2022-08-16T17:32:33.914Z,100178.19
2022-08-16T17:37:51.008Z,100172.34
2022-08-16T17:42:54.693Z,100188.28
2022-08-16T17:47:56.495Z,100176.53
2022-08-16T17:52:58.207Z,100180.59
2022-08-16T17:58:00.238Z,100175.59
2022-08-16T18:03:01.780Z,100177.06
2022-08-16T18:08:03.531Z,100173.66
2022-08-16T18:13:05.109Z,100177.53
2022-08-16T18:18:09.382Z,100178.16
2022-08-16T18:23:15.193Z,100186.72
2022-08-16T18:28:20.333Z,100184.00
2022-08-16T18:33:24.152Z,100181.53
2022-08-16T18:38:26.093Z,100182.47
2022-08-16T18:44:22.587Z,100185.84
2022-08-16T18:48:50.488Z,100184.28
2022-08-16T18:53:52.217Z,100189.50
2022-08-16T18:58:53.767Z,100189.78
2022-08-16T19:03:55.332Z,100190.66
2022-08-16T19:08:56.915Z,100194.19
2022-08-16T19:13:58.608Z,100200.16
2022-08-16T19:19:00.194Z,100211.16
2022-08-16T19:24:01.980Z,100212.53
2022-08-16T19:29:08.265Z,100222.69
2022-08-16T19:34:10.315Z,100226.75
2022-08-16T19:39:15.205Z,100232.31
2022-08-16T19:44:17.061Z,100231.34
2022-08-16T19:49:18.704Z,100241.84
2022-08-16T19:54:20.390Z,100248.69
2022-08-16T19:59:39.053Z,100253.97
2022-08-16T20:04:42.363Z,100264.19
2022-08-16T20:09:48.058Z,100264.06
2022-08-16T20:14:52.066Z,100266.63
2022-08-16T20:19:53.636Z,100267.13
2022-08-16T20:24:55.629Z,100267.13
2022-08-16T20:29:57.395Z,100274.28
2022-08-16T20:34:58.998Z,100281.34
2022-08-16T20:40:27.197Z,100292.81
2022-08-16T20:45:22.182Z,100298.81
2022-08-16T20:50:28.846Z,100297.66
2022-08-16T20:55:33.316Z,100309.16
2022-08-16T21:00:35.041Z,100303.19
2022-08-16T21:05:37.156Z,100302.03
2022-08-16T21:10:38.810Z,100292.53
2022-08-16T21:15:40.347Z,100282.28
2022-08-16T21:20:42.056Z,100277.94
2022-08-16T21:25:57.695Z,100282.66
2022-08-16T21:31:00.261Z,100280.56
2022-08-16T21:36:01.821Z,100282.72
2022-08-16T21:41:06.058Z,100291.16
2022-08-16T21:46:08.623Z,100290.19
2022-08-16T21:51:12.932Z,100279.72
2022-08-16T21:56:16.788Z,100286.53
2022-08-16T22:01:19.257Z,100286.19
2022-08-16T22:06:20.837Z,100285.91
2022-08-16T22:11:25.169Z,100287.69
2022-08-16T22:16:29.109Z,100292.34
2022-08-16T22:21:32.073Z,100277.66
2022-08-16T22:26:39.583Z,100281.41
2022-08-16T22:31:44.776Z,100279.38
2022-08-16T22:36:47.470Z,100283.09
2022-08-16T22:41:49.004Z,100289.81
2022-08-16T22:46:50.610Z,100298.66
2022-08-16T22:51:52.387Z,100297.16
2022-08-16T22:56:54.053Z,100291.63
2022-08-16T23:01:56.119Z,100290.28
2022-08-16T23:06:57.866Z,100292.78
2022-08-16T23:12:04.303Z,100296.13
2022-08-16T23:17:06.001Z,100293.50
2022-08-16T23:22:07.545Z,100295.16
2022-08-16T23:27:09.289Z,100293.94
2022-08-16T23:32:11.744Z,100285.56
2022-08-16T23:37:13.303Z,100281.31
2022-08-16T23:42:15.399Z,100279.72
2022-08-16T23:47:37.037Z,100269.88
2022-08-16T23:52:54.025Z,100275.56
2022-08-16T23:57:57.229Z,100280.91
